createdAt,value
2023-04-20T00:06:29.633Z,2.70
2023-04-20T00:11:31.819Z,3.42
2023-04-20T00:16:34.013Z,3.20
2023-04-20T00:26:37.997Z,2.73
2023-04-20T00:36:41.969Z,3.20
2023-04-20T00:41:43.990Z,3.05
2023-04-20T00:46:46.290Z,3.50
2023-04-20T00:51:48.404Z,3.03
2023-04-20T01:05:13.843Z,3.08
2023-04-20T01:10:16.043Z,3.15
2023-04-20T01:20:23.796Z,3.15
2023-04-20T01:25:28.905Z,3.70
2023-04-20T01:35:33.000Z,3.40
2023-04-20T01:40:39.197Z,3.13
2023-04-20T01:45:46.294Z,3.53
2023-04-20T01:50:52.009Z,3.05
2023-04-20T01:55:56.975Z,3.10
2023-04-20T02:01:02.043Z,3.40
2023-04-20T02:06:05.013Z,2.92
2023-04-20T02:11:07.071Z,2.83
2023-04-20T02:16:14.832Z,3.25
2023-04-20T02:21:16.885Z,2.60
2023-04-20T02:30:23.262Z,2.72
2023-04-20T02:40:28.309Z,3.00
2023-04-20T02:45:30.937Z,2.80
2023-04-20T02:50:35.354Z,2.97
2023-04-20T02:55:48.574Z,2.90
2023-04-20T03:01:02.763Z,2.80
2023-04-20T03:06:06.523Z,2.38
2023-04-20T03:11:09.266Z,2.60
2023-04-20T03:16:11.830Z,3.28
2023-04-20T03:21:19.229Z,2.90
2023-04-20T03:26:21.341Z,2.97
2023-04-20T03:31:45.511Z,2.50
2023-04-20T03:36:48.359Z,2.65
2023-04-20T03:46:52.315Z,2.17
2023-04-20T03:51:54.440Z,2.97
2023-04-20T03:56:58.582Z,2.35
2023-04-20T04:07:33.576Z,2.40
2023-04-20T04:12:36.130Z,3.08
2023-04-20T04:23:18.357Z,2.40
2023-04-20T04:29:06.505Z,2.78
2023-04-20T04:34:50.352Z,2.53
2023-04-20T04:39:52.775Z,3.05
2023-04-20T04:45:02.041Z,2.40
2023-04-20T04:50:07.610Z,2.70
2023-04-20T04:55:10.069Z,2.70
2023-04-20T05:10:17.201Z,3.28
2023-04-20T05:15:19.496Z,2.20
2023-04-20T05:25:23.748Z,3.00
2023-04-20T05:30:28.399Z,2.65
2023-04-20T05:35:30.925Z,3.20
2023-04-20T05:40:37.314Z,2.88
2023-04-20T05:45:39.396Z,3.00
2023-04-20T05:50:42.126Z,3.10
2023-04-20T05:55:44.063Z,2.88
2023-04-20T06:00:46.328Z,3.15
2023-04-20T06:05:48.551Z,6.25
2023-04-20T06:10:57.306Z,3.70
2023-04-20T06:15:59.340Z,3.42
2023-04-20T06:21:02.185Z,3.15
2023-04-20T06:26:04.990Z,3.08
2023-04-20T06:31:07.213Z,3.72
2023-04-20T06:36:09.295Z,3.13
2023-04-20T06:41:11.736Z,2.92
2023-04-20T06:46:13.737Z,2.95
2023-04-20T06:51:15.822Z,2.85
2023-04-20T06:56:17.900Z,2.58
2023-04-20T07:01:19.885Z,3.03
2023-04-20T07:06:22.112Z,2.53
2023-04-20T07:16:26.371Z,2.50
2023-04-20T07:26:30.289Z,2.07
2023-04-20T07:31:34.189Z,2.03
2023-04-20T07:36:39.227Z,2.10
2023-04-20T07:41:41.256Z,1.90
2023-04-20T07:46:43.179Z,2.22
2023-04-20T07:51:45.556Z,2.72
2023-04-20T07:56:47.768Z,2.20
2023-04-20T08:01:50.542Z,2.67
2023-04-20T08:06:52.694Z,2.72
2023-04-20T08:16:56.514Z,2.65
2023-04-20T08:27:01.724Z,2.28
2023-04-20T08:32:04.900Z,2.20
2023-04-20T08:37:07.258Z,2.00
2023-04-20T08:42:09.502Z,2.35
2023-04-20T08:47:12.089Z,2.00
2023-04-20T08:52:14.204Z,1.95
2023-04-20T08:57:16.236Z,2.00
2023-04-20T09:02:18.294Z,1.77
2023-04-20T09:07:21.693Z,2.40
2023-04-20T09:12:24.859Z,2.42
2023-04-20T09:17:39.427Z,2.03
2023-04-20T09:22:41.468Z,1.90
2023-04-20T09:32:47.348Z,2.20
2023-04-20T09:37:49.646Z,2.30
2023-04-20T09:42:53.604Z,2.58
2023-04-20T09:47:56.294Z,2.25
2023-04-20T09:53:00.271Z,2.53
2023-04-20T09:58:04.408Z,2.55
2023-04-20T10:03:09.109Z,2.58
2023-04-20T10:08:11.503Z,2.28
2023-04-20T10:13:14.423Z,2.50
2023-04-20T10:18:26.681Z,2.45
2023-04-20T10:23:28.760Z,2.28
2023-04-20T10:33:54.868Z,2.47
2023-04-20T10:38:58.214Z,2.50
2023-04-20T10:44:09.891Z,3.10
2023-04-20T10:49:12.036Z,3.00
2023-04-20T10:54:15.380Z,3.10
2023-04-20T10:59:21.521Z,3.33
2023-04-20T11:04:32.441Z,3.33
2023-04-20T11:09:35.691Z,2.90
2023-04-20T11:14:40.274Z,2.90
2023-04-20T11:19:42.332Z,2.92
2023-04-20T11:29:46.658Z,2.85
2023-04-20T11:35:06.063Z,2.60
2023-04-20T11:40:10.192Z,2.72
2023-04-20T11:45:12.939Z,2.72
2023-04-20T11:50:15.312Z,3.10
2023-04-20T11:55:17.507Z,2.90
2023-04-20T12:00:20.540Z,2.10
2023-04-20T12:05:23.151Z,2.67
2023-04-20T12:10:25.332Z,2.40
2023-04-20T12:15:27.818Z,2.60
2023-04-20T12:20:29.886Z,2.58
2023-04-20T12:25:32.348Z,2.25
2023-04-20T12:30:37.944Z,2.67
2023-04-20T12:35:39.925Z,3.42
2023-04-20T12:40:42.028Z,2.67
2023-04-20T12:45:44.125Z,2.55
2023-04-20T12:50:46.308Z,2.55
2023-04-20T12:55:52.994Z,2.20
2023-04-20T13:00:59.726Z,2.63
2023-04-20T13:11:04.305Z,2.33
2023-04-20T13:16:06.930Z,2.42
2023-04-20T13:21:12.298Z,1.73
2023-04-20T13:26:14.558Z,2.20
2023-04-20T13:31:17.812Z,2.03
2023-04-20T13:36:24.393Z,2.80
2023-04-20T13:41:26.578Z,2.17
2023-04-20T13:46:29.615Z,2.10
2023-04-20T13:51:31.771Z,1.95
2023-04-20T13:56:34.740Z,2.13
2023-04-20T14:01:41.548Z,1.92
2023-04-20T14:06:43.650Z,1.80
2023-04-20T14:16:49.409Z,2.08
2023-04-20T14:21:51.746Z,1.80
2023-04-20T14:26:54.399Z,1.98
2023-04-20T14:31:56.524Z,2.28
2023-04-20T14:36:58.670Z,2.33
2023-04-20T14:42:01.213Z,1.75
2023-04-20T14:47:03.552Z,1.75
2023-04-20T14:52:05.613Z,2.53
2023-04-20T14:57:07.540Z,2.10
2023-04-20T15:07:11.652Z,2.08
2023-04-20T15:12:13.821Z,1.98
2023-04-20T15:17:15.950Z,2.08
2023-04-20T15:22:19.100Z,2.38
2023-04-20T15:27:21.083Z,2.40
2023-04-20T15:32:23.286Z,2.30
2023-04-20T15:37:25.404Z,2.67
2023-04-20T15:42:27.672Z,2.42
2023-04-20T15:47:29.715Z,2.28
2023-04-20T15:52:32.657Z,2.25
2023-04-20T15:57:34.677Z,1.90
2023-04-20T16:02:40.168Z,2.00
2023-04-20T16:07:42.445Z,1.80
2023-04-20T16:12:44.520Z,2.08
2023-04-20T16:17:46.670Z,2.00
2023-04-20T16:22:48.617Z,2.13
2023-04-20T16:32:53.852Z,1.52
2023-04-20T16:37:56.516Z,1.90
2023-04-20T16:42:58.780Z,2.00
2023-04-20T16:48:01.015Z,2.00
2023-04-20T16:53:03.836Z,2.22
2023-04-20T16:58:06.078Z,2.47
2023-04-20T17:03:10.673Z,2.10
2023-04-20T17:08:13.047Z,2.25
2023-04-20T17:13:15.540Z,1.88
2023-04-20T17:18:17.446Z,2.10
2023-04-20T17:28:21.646Z,2.13
2023-04-20T17:38:25.633Z,2.10
2023-04-20T17:43:27.653Z,2.50
2023-04-20T17:53:31.590Z,1.90
2023-04-20T18:03:35.803Z,2.45
2023-04-20T18:08:37.941Z,1.92
2023-04-20T18:13:40.093Z,2.53
2023-04-20T18:18:42.163Z,6.00
2023-04-20T18:28:49.115Z,3.70
2023-04-20T18:35:47.834Z,2.78
2023-04-20T18:40:49.704Z,3.70
2023-04-20T18:45:51.643Z,3.50
2023-04-20T18:50:53.833Z,2.97
2023-04-20T18:55:59.200Z,3.55
2023-04-20T19:01:03.580Z,4.00
2023-04-20T19:06:08.368Z,3.20
2023-04-20T19:16:12.618Z,2.85
2023-04-20T19:21:15.577Z,2.80
2023-04-20T19:26:18.214Z,3.00
2023-04-20T19:31:20.428Z,3.72
2023-04-20T19:36:23.352Z,3.60
2023-04-20T19:41:26.228Z,3.83
2023-04-20T19:46:28.273Z,3.33
2023-04-20T19:56:34.735Z,3.88
2023-04-20T20:01:36.909Z,4.82
2023-04-20T20:06:38.987Z,5.97
2023-04-20T20:16:44.389Z,4.82
2023-04-20T20:21:46.374Z,4.85
2023-04-20T20:26:48.249Z,3.60
2023-04-20T20:31:50.209Z,4.40
2023-04-20T20:36:53.359Z,4.80
2023-04-20T20:41:58.263Z,4.45
2023-04-20T20:47:00.908Z,4.03
2023-04-20T20:52:03.132Z,3.63
2023-04-20T20:57:05.338Z,3.47
2023-04-20T21:02:07.479Z,3.25
2023-04-20T21:07:09.440Z,3.45
2023-04-20T21:12:11.426Z,3.65
2023-04-20T21:22:15.291Z,2.88
2023-04-20T21:32:19.266Z,3.10
2023-04-20T21:42:23.118Z,4.30
2023-04-20T21:52:27.170Z,3.80
2023-04-20T22:02:31.226Z,2.25
2023-04-20T22:07:33.455Z,3.50
2023-04-20T22:12:40.428Z,2.80
2023-04-20T22:17:46.741Z,2.97
2023-04-20T22:22:48.992Z,2.47
2023-04-20T22:27:51.015Z,2.97
2023-04-20T22:32:53.190Z,2.47
2023-04-20T22:37:55.672Z,2.53
2023-04-20T22:42:57.807Z,2.17
2023-04-20T22:47:59.947Z,2.30
2023-04-20T22:53:02.033Z,2.25
2023-04-20T23:03:06.363Z,2.75
2023-04-20T23:08:09.581Z,2.50
2023-04-20T23:13:17.197Z,2.40
2023-04-20T23:18:19.254Z,2.58
2023-04-20T23:28:23.384Z,2.20
2023-04-20T23:38:27.498Z,2.92
2023-04-20T23:48:31.606Z,2.83
2023-04-20T23:53:37.447Z,3.17
2023-04-20T23:58:39.573Z,2.97
